createdAt,value
2019-05-11T00:05:04.790Z,76.26
2019-05-11T00:10:09.237Z,76.87
2019-05-11T00:15:13.785Z,76.24
2019-05-11T00:20:18.158Z,76.81
2019-05-11T00:25:22.507Z,76.55
2019-05-11T00:30:26.883Z,76.56
2019-05-11T00:35:31.380Z,76.53
2019-05-11T00:40:35.782Z,76.11
2019-05-11T00:45:40.113Z,76.14
2019-05-11T00:50:44.460Z,75.96
2019-05-11T00:55:48.876Z,76.42
2019-05-11T01:00:53.209Z,76.67
2019-05-11T01:05:57.567Z,76.67
2019-05-11T01:11:02.301Z,76.06
2019-05-11T01:16:06.685Z,76.66
2019-05-11T01:21:11.102Z,76.82
2019-05-11T01:26:15.470Z,77.21
2019-05-11T01:31:19.914Z,77.95
2019-05-11T01:36:24.301Z,77.81
2019-05-11T01:41:28.698Z,76.94
2019-05-11T01:46:33.047Z,76.35
2019-05-11T01:51:37.443Z,77.39
2019-05-11T01:56:41.808Z,77.44
2019-05-11T02:01:46.186Z,77.55
2019-05-11T02:06:50.532Z,78.36
2019-05-11T02:11:54.858Z,78.36
2019-05-11T02:16:59.222Z,76.98
2019-05-11T02:22:03.559Z,77.10
2019-05-11T02:27:08.024Z,77.46
2019-05-11T02:32:12.461Z,76.86
2019-05-11T02:37:16.824Z,77.56
2019-05-11T02:42:21.192Z,77.85
2019-05-11T02:47:25.564Z,77.91
2019-05-11T02:52:30.759Z,77.37
2019-05-11T02:57:35.109Z,78.46
2019-05-11T03:02:39.481Z,78.78
2019-05-11T03:07:43.872Z,78.74
2019-05-11T03:12:48.188Z,78.57
2019-05-11T03:17:52.530Z,79.46
2019-05-11T03:22:56.939Z,78.75
2019-05-11T03:28:01.313Z,79.12
2019-05-11T03:33:05.756Z,79.25
2019-05-11T03:38:11.074Z,78.13
2019-05-11T03:43:15.415Z,80.47
2019-05-11T03:48:19.772Z,79.28
2019-05-11T03:53:24.145Z,79.70
2019-05-11T03:58:28.501Z,79.82
2019-05-11T04:03:32.840Z,80.00
2019-05-11T04:08:37.218Z,78.89
2019-05-11T04:13:41.557Z,77.99
2019-05-11T04:18:46.027Z,78.04
2019-05-11T04:23:50.416Z,77.45
2019-05-11T04:28:55.834Z,75.74
2019-05-11T04:34:00.197Z,75.45
2019-05-11T04:39:06.494Z,75.80
2019-05-11T04:44:10.857Z,75.66
2019-05-11T04:49:16.432Z,76.24
2019-05-11T04:54:20.824Z,73.82
2019-05-11T04:59:25.258Z,70.90
2019-05-11T05:04:29.636Z,70.30
2019-05-11T05:09:41.960Z,70.59
2019-05-11T05:14:40.080Z,70.89
2019-05-11T05:19:44.443Z,71.36
2019-05-11T05:24:49.154Z,71.00
2019-05-11T05:29:54.477Z,70.99
2019-05-11T05:34:58.840Z,69.70
2019-05-11T05:40:03.252Z,68.21
2019-05-11T05:45:09.213Z,69.46
2019-05-11T05:50:14.576Z,68.84
2019-05-11T05:55:19.004Z,69.64
2019-05-11T06:00:23.519Z,69.27
2019-05-11T06:05:27.899Z,68.36
2019-05-11T06:10:32.253Z,69.82
2019-05-11T06:15:36.603Z,70.14
2019-05-11T06:20:40.978Z,70.96
2019-05-11T06:25:45.333Z,70.42
2019-05-11T06:30:49.696Z,69.41
2019-05-11T06:35:54.067Z,69.06
2019-05-11T06:40:58.414Z,67.07
2019-05-11T06:46:02.752Z,66.42
2019-05-11T06:51:07.082Z,66.25
2019-05-11T06:56:11.475Z,66.41
2019-05-11T07:01:15.887Z,65.88
2019-05-11T07:06:20.243Z,66.06
2019-05-11T07:11:24.659Z,67.23
2019-05-11T07:16:29.012Z,66.98
2019-05-11T07:21:34.429Z,67.05
2019-05-11T07:26:38.779Z,68.32
2019-05-11T07:31:45.386Z,67.92
2019-05-11T07:36:49.825Z,68.53
2019-05-11T07:41:54.193Z,67.18
2019-05-11T07:46:58.823Z,66.72
2019-05-11T07:52:03.306Z,68.16
2019-05-11T07:57:08.753Z,67.92
2019-05-11T08:02:13.118Z,66.80
2019-05-11T08:07:18.102Z,67.54
2019-05-11T08:12:22.659Z,68.79
2019-05-11T08:17:28.607Z,75.07
2019-05-11T08:22:33.234Z,74.74
2019-05-11T08:27:37.932Z,75.27
2019-05-11T08:32:42.400Z,77.05
2019-05-11T08:37:47.924Z,73.80
2019-05-11T08:42:52.379Z,78.61
2019-05-11T08:47:57.900Z,76.58
2019-05-11T08:53:02.462Z,75.62
2019-05-11T08:58:08.520Z,76.93
2019-05-11T09:03:13.958Z,76.93
2019-05-11T09:08:18.942Z,77.02
2019-05-11T09:13:23.404Z,78.82
2019-05-11T09:18:28.115Z,79.56
2019-05-11T09:23:37.630Z,80.71
2019-05-11T09:28:39.646Z,82.45
2019-05-11T09:33:44.152Z,82.86
2019-05-11T09:38:49.173Z,83.03
2019-05-11T09:43:53.563Z,82.69
2019-05-11T09:48:59.050Z,82.86
2019-05-11T09:54:03.559Z,82.51
2019-05-11T09:59:08.852Z,82.59
2019-05-11T10:04:13.440Z,81.99
2019-05-11T10:09:18.601Z,81.65
2019-05-11T10:14:23.202Z,83.34
2019-05-11T10:19:28.467Z,83.13
2019-05-11T10:24:32.996Z,83.64
2019-05-11T10:29:38.201Z,86.74
2019-05-11T10:34:42.786Z,84.12
2019-05-11T10:39:48.846Z,84.40
2019-05-11T10:44:53.377Z,82.04
2019-05-11T10:49:58.049Z,83.44
2019-05-11T10:55:02.848Z,81.83
2019-05-11T11:00:10.853Z,83.34
2019-05-11T11:05:15.368Z,80.67
2019-05-11T11:10:19.780Z,83.00
2019-05-11T11:15:24.301Z,83.37
2019-05-11T11:20:28.654Z,82.24
2019-05-11T11:25:33.095Z,83.75
2019-05-11T11:30:37.935Z,84.15
2019-05-11T11:35:42.490Z,82.32
2019-05-11T11:40:48.218Z,83.78
2019-05-11T11:45:52.825Z,83.76
2019-05-11T11:50:58.557Z,82.63
2019-05-11T11:56:02.976Z,82.60
2019-05-11T12:01:08.129Z,82.11
2019-05-11T12:06:12.740Z,81.25
2019-05-11T12:11:18.674Z,85.72
2019-05-11T12:16:23.275Z,85.27
2019-05-11T12:21:27.931Z,86.79
2019-05-11T12:26:33.797Z,85.23
2019-05-11T12:31:39.271Z,84.03
2019-05-11T12:36:43.672Z,84.23
2019-05-11T12:41:50.018Z,84.32
2019-05-11T12:46:58.174Z,85.16
2019-05-11T12:52:02.097Z,86.38
2019-05-11T12:57:07.893Z,86.95
2019-05-11T13:02:12.455Z,89.52
2019-05-11T13:07:19.533Z,88.47
2019-05-11T13:12:22.856Z,88.30
2019-05-11T13:17:36.672Z,87.43
2019-05-11T13:22:33.282Z,85.96
2019-05-11T13:27:38.672Z,86.82
2019-05-11T13:32:44.221Z,87.97
2019-05-11T13:37:48.780Z,88.76
2019-05-11T13:42:53.226Z,89.76
2019-05-11T13:47:59.260Z,88.38
2019-05-11T13:53:03.949Z,88.94
2019-05-11T13:58:09.309Z,86.87
2019-05-11T14:03:13.728Z,87.07
2019-05-11T14:08:18.798Z,86.54
2019-05-11T14:13:29.931Z,85.79
2019-05-11T14:18:34.452Z,86.83
2019-05-11T14:23:38.980Z,86.08
2019-05-11T14:28:43.435Z,89.65
2019-05-11T14:33:49.255Z,91.48
2019-05-11T14:38:57.799Z,92.79
2019-05-11T14:44:08.799Z,92.73
2019-05-11T14:49:18.463Z,89.60
2019-05-11T14:54:24.725Z,85.42
2019-05-11T14:59:32.522Z,84.63
2019-05-11T15:04:42.378Z,86.49
2019-05-11T15:09:48.318Z,84.04
2019-05-11T15:14:53.637Z,84.74
2019-05-11T15:19:59.182Z,86.61
2019-05-11T15:25:04.826Z,88.69
2019-05-11T15:30:09.558Z,88.18
2019-05-11T15:35:14.405Z,87.30
2019-05-11T15:40:20.893Z,87.60
2019-05-11T15:45:27.537Z,88.31
2019-05-11T15:50:31.380Z,88.68
2019-05-11T15:55:38.529Z,88.83
2019-05-11T16:00:41.912Z,89.15
2019-05-11T16:05:47.881Z,87.56
2019-05-11T16:10:52.452Z,88.28
2019-05-11T16:15:57.717Z,87.45
2019-05-11T16:21:02.293Z,87.74
2019-05-11T16:26:08.512Z,88.78
2019-05-11T16:31:12.982Z,89.21
2019-05-11T16:36:18.054Z,89.44
2019-05-11T16:41:22.625Z,89.22
2019-05-11T16:46:28.372Z,88.25
2019-05-11T16:51:33.072Z,88.63
2019-05-11T16:56:38.328Z,89.35
2019-05-11T17:01:43.300Z,89.99
2019-05-11T17:06:48.656Z,90.42
2019-05-11T17:11:53.265Z,89.59
2019-05-11T17:16:58.552Z,89.35
2019-05-11T17:22:03.150Z,89.71
2019-05-11T17:27:08.853Z,89.04
2019-05-11T17:32:13.713Z,87.84
2019-05-11T17:37:18.443Z,89.19
2019-05-11T17:42:23.791Z,91.63
2019-05-11T17:47:28.320Z,89.96
2019-05-11T17:52:32.695Z,91.34
2019-05-11T17:57:38.235Z,91.98
2019-05-11T18:02:43.698Z,92.41
2019-05-11T18:07:48.031Z,92.15
2019-05-11T18:12:52.416Z,93.43
2019-05-11T18:17:58.843Z,93.50
2019-05-11T18:23:03.391Z,92.75
2019-05-11T18:28:07.735Z,91.53
2019-05-11T18:33:12.106Z,90.42
2019-05-11T18:38:17.849Z,90.20
2019-05-11T18:43:22.323Z,90.56
2019-05-11T18:48:28.991Z,89.15
2019-05-11T18:53:33.058Z,89.04
2019-05-11T18:58:38.413Z,90.44
2019-05-11T19:03:42.878Z,89.76
2019-05-11T19:08:47.903Z,90.29
2019-05-11T19:13:52.402Z,91.57
2019-05-11T19:18:58.571Z,91.97
2019-05-11T19:24:05.966Z,91.23
2019-05-11T19:29:09.161Z,90.81
2019-05-11T19:34:13.637Z,90.07
2019-05-11T19:39:19.344Z,90.11
2019-05-11T19:44:23.960Z,91.57
2019-05-11T19:49:28.341Z,89.84
2019-05-11T19:54:33.772Z,91.08
2019-05-11T19:59:38.829Z,90.17
2019-05-11T20:04:43.229Z,89.86
2019-05-11T20:09:47.612Z,90.31
2019-05-11T20:14:52.906Z,91.06
2019-05-11T20:19:58.077Z,91.11
2019-05-11T20:25:04.432Z,91.85
2019-05-11T20:30:08.803Z,92.44
2019-05-11T20:35:13.438Z,92.83
2019-05-11T20:40:18.483Z,92.69
2019-05-11T20:45:23.029Z,92.49
2019-05-11T20:50:27.423Z,94.10
2019-05-11T20:55:31.930Z,95.03
2019-05-11T21:00:38.324Z,95.10
2019-05-11T21:05:42.464Z,95.13
2019-05-11T21:10:49.008Z,96.60
2019-05-11T21:15:53.042Z,97.41
2019-05-11T21:20:57.766Z,97.01
2019-05-11T21:26:02.206Z,96.66
2019-05-11T21:31:08.001Z,96.05
2019-05-11T21:36:12.744Z,96.94
2019-05-11T21:41:17.115Z,97.92
2019-05-11T21:46:21.517Z,97.56
2019-05-11T21:51:28.351Z,98.03
2019-05-11T21:56:31.944Z,97.56
2019-05-11T22:01:38.341Z,97.88
2019-05-11T22:06:45.395Z,97.96
2019-05-11T22:11:49.788Z,98.05
2019-05-11T22:16:55.427Z,97.69
2019-05-11T22:22:00.384Z,98.12
2019-05-11T22:27:04.734Z,98.64
2019-05-11T22:32:09.145Z,98.31
2019-05-11T22:37:13.523Z,98.01
2019-05-11T22:42:18.428Z,98.30
2019-05-11T22:47:22.974Z,97.79
2019-05-11T22:52:36.181Z,98.21
2019-05-11T22:57:33.517Z,97.91
2019-05-11T23:02:38.259Z,96.94
2019-05-11T23:07:42.905Z,100.00
2019-05-11T23:12:48.252Z,98.32
2019-05-11T23:17:53.529Z,97.01
2019-05-11T23:23:01.474Z,94.30
2019-05-11T23:28:04.561Z,94.64
2019-05-11T23:33:09.008Z,95.48
2019-05-11T23:38:13.916Z,96.32
2019-05-11T23:43:19.404Z,96.69
2019-05-11T23:48:23.821Z,98.18
2019-05-11T23:53:31.801Z,97.63
2019-05-11T23:58:38.963Z,97.10
